Time;durP1;ratioP1;P1;durP2;ratioP2;P2;SDS_P1;SDS_P2;PMS_P1;PMS_P2;Temp;Humidity;BMP_temperature;BMP_pressure;BME280_temperature;BME280_humidity;BME280_pressure;Samples;Min_cycle;Max_cycle;Signal;HPM_P1;HPM_P2
2022/03/25 00:01:20;;;;;;;18.03;10.13;;;;;;;;;;4925274;28;21054;-49
2022/03/25 00:03:46;;;;;;;15.90;10.60;;;;;;;;;;4926380;28;20550;-49
2022/03/25 00:06:12;;;;;;;16.03;11.40;;;;;;;;;;4923366;28;20450;-49
2022/03/25 00:08:38;;;;;;;20.33;10.60;;;;;;;;;;4927824;28;20440;-50
2022/03/25 00:11:04;;;;;;;18.13;10.33;;;;;;;;;;4925783;28;22467;-50
2022/03/25 00:13:30;;;;;;;15.67;10.43;;;;;;;;;;4926673;28;20495;-50
2022/03/25 00:15:57;;;;;;;18.90;10.60;;;;;;;;;;4921340;28;20452;-50
2022/03/25 00:18:23;;;;;;;18.37;10.73;;;;;;;;;;4937296;28;21064;-50
2022/03/25 00:20:50;;;;;;;21.90;11.63;;;;;;;;;;4920061;28;20446;-50
2022/03/25 00:23:17;;;;;;;15.90;10.87;;;;;;;;;;4922983;28;21253;-50
2022/03/25 00:25:43;;;;;;;19.73;10.87;;;;;;;;;;4924535;28;20551;-50
2022/03/25 00:28:11;;;;;;;17.87;10.30;;;;;;;;;;4924007;28;20442;-50
2022/03/25 00:30:37;;;;;;;18.37;11.00;;;;;;;;;;4916023;29;20440;-50
2022/03/25 00:33:04;;;;;;;19.93;11.30;;;;;;;;;;4920324;28;20463;-50
2022/03/25 00:35:31;;;;;;;14.10;9.47;;;;;;;;;;4931365;28;20470;-51
2022/03/25 00:37:58;;;;;;;17.03;10.30;;;;;;;;;;4922153;28;20964;-51
2022/03/25 00:40:24;;;;;;;16.60;11.17;;;;;;;;;;4938619;28;20794;-50
2022/03/25 00:42:51;;;;;;;16.87;10.17;;;;;;;;;;4920834;28;20435;-49
2022/03/25 00:45:17;;;;;;;19.93;10.57;;;;;;;;;;4927058;28;20510;-51
2022/03/25 00:47:43;;;;;;;16.17;9.47;;;;;;;;;;4923824;28;20458;-50
2022/03/25 00:50:10;;;;;;;17.73;10.83;;;;;;;;;;4926893;28;20662;-50
2022/03/25 00:52:37;;;;;;;19.47;10.00;;;;;;;;;;4912355;28;20456;-50
2022/03/25 00:55:03;;;;;;;17.80;11.30;;;;;;;;;;4922432;28;20438;-51
2022/03/25 00:57:29;;;;;;;16.10;8.57;;;;;;;;;;4926425;28;21268;-49
2022/03/25 00:59:56;;;;;;;19.90;10.87;;;;;;;;;;4928232;28;20450;-50
2022/03/25 01:02:22;;;;;;;18.33;10.30;;;;;;;;;;4925514;28;20452;-50
2022/03/25 01:04:48;;;;;;;19.23;9.43;;;;;;;;;;4923516;28;21058;-51
2022/03/25 01:07:14;;;;;;;15.67;10.50;;;;;;;;;;4928157;28;21194;-50
2022/03/25 01:09:40;;;;;;;20.53;11.47;;;;;;;;;;4926292;28;20965;-49
2022/03/25 01:12:08;;;;;;;17.67;11.33;;;;;;;;;;4923072;28;20441;-50
2022/03/25 01:14:44;;;;;;;15.80;10.80;;;;;;;;;;4923862;28;20446;-49
2022/03/25 01:17:10;;;;;;;18.80;9.73;;;;;;;;;;4925876;28;20512;-52
2022/03/25 01:19:38;;;;;;;21.00;10.87;;;;;;;;;;4925407;28;20451;-51
2022/03/25 01:22:05;;;;;;;19.97;9.90;;;;;;;;;;4919437;28;20463;-50
2022/03/25 01:24:36;;;;;;;14.70;9.47;;;;;;;;;;4923752;28;20921;-51
2022/03/25 01:27:04;;;;;;;16.10;10.77;;;;;;;;;;4923194;28;20461;-50
2022/03/25 01:29:40;;;;;;;18.37;11.00;;;;;;;;;;4923206;28;20436;-52
2022/03/25 01:32:08;;;;;;;19.07;9.80;;;;;;;;;;4921883;28;21318;-51
2022/03/25 01:34:49;;;;;;;17.10;10.20;;;;;;;;;;4923821;28;21089;-51
2022/03/25 01:37:20;;;;;;;19.90;10.73;;;;;;;;;;4922296;28;20503;-51
2022/03/25 01:40:09;;;;;;;14.60;9.80;;;;;;;;;;4923403;28;20454;-50
2022/03/25 01:42:41;;;;;;;15.40;10.27;;;;;;;;;;4913299;28;20600;-51
2022/03/25 01:45:09;;;;;;;21.47;12.30;;;;;;;;;;4924021;28;21008;-50
2022/03/25 01:47:42;;;;;;;25.50;12.10;;;;;;;;;;4922675;28;20436;-50
2022/03/25 01:50:25;;;;;;;23.47;11.50;;;;;;;;;;4944448;28;20447;-52
2022/03/25 01:52:55;;;;;;;15.43;9.90;;;;;;;;;;4930472;28;20543;-50
2022/03/25 01:55:32;;;;;;;19.10;10.90;;;;;;;;;;4957924;28;20435;-50
2022/03/25 01:58:06;;;;;;;20.70;10.17;;;;;;;;;;4941733;28;20491;-50
2022/03/25 02:00:32;;;;;;;19.20;10.77;;;;;;;;;;4942795;28;20509;-51
2022/03/25 02:02:58;;;;;;;22.43;12.90;;;;;;;;;;4941386;28;21081;-50
2022/03/25 02:05:25;;;;;;;15.30;10.10;;;;;;;;;;4943113;28;20988;-50
2022/03/25 02:07:51;;;;;;;16.60;10.03;;;;;;;;;;4921328;28;20440;-51
2022/03/25 02:10:19;;;;;;;18.47;11.37;;;;;;;;;;4942633;28;20550;-50
2022/03/25 02:12:46;;;;;;;18.93;10.57;;;;;;;;;;4940361;28;20439;-50
2022/03/25 02:15:12;;;;;;;23.47;15.07;;;;;;;;;;4943397;28;20431;-50
2022/03/25 02:17:39;;;;;;;19.67;10.73;;;;;;;;;;4955598;28;20533;-51
2022/03/25 02:20:08;;;;;;;19.77;11.50;;;;;;;;;;4941228;28;20434;-51
2022/03/25 02:22:41;;;;;;;15.90;9.70;;;;;;;;;;4941287;28;20446;-54
2022/03/25 02:25:08;;;;;;;17.40;9.50;;;;;;;;;;4943419;28;20474;-49
2022/03/25 02:27:38;;;;;;;14.60;10.20;;;;;;;;;;4940979;28;20529;-51
2022/03/25 02:30:06;;;;;;;17.07;10.40;;;;;;;;;;4939373;28;21555;-50
2022/03/25 02:32:33;;;;;;;20.47;11.07;;;;;;;;;;4938160;28;20442;-52
2022/03/25 02:34:59;;;;;;;17.17;10.37;;;;;;;;;;4947193;28;20427;-49
2022/03/25 02:37:28;;;;;;;18.33;11.30;;;;;;;;;;4944205;28;20471;-50
2022/03/25 02:39:55;;;;;;;16.93;11.97;;;;;;;;;;4968361;28;20472;-51
2022/03/25 02:42:21;;;;;;;20.60;10.60;;;;;;;;;;4942867;28;20432;-50
2022/03/25 02:44:48;;;;;;;21.80;10.67;;;;;;;;;;4939346;28;20806;-50
2022/03/25 02:47:14;;;;;;;15.00;10.33;;;;;;;;;;4941098;28;20440;-50
2022/03/25 02:49:40;;;;;;;19.37;10.43;;;;;;;;;;4942913;28;20435;-50
2022/03/25 02:52:07;;;;;;;18.67;9.90;;;;;;;;;;4944682;28;20538;-50
2022/03/25 02:54:33;;;;;;;15.33;9.50;;;;;;;;;;4945704;28;20560;-50
2022/03/25 02:56:59;;;;;;;21.60;10.30;;;;;;;;;;4944045;28;21097;-49
2022/03/25 02:59:25;;;;;;;16.83;10.20;;;;;;;;;;4944850;28;20435;-50
2022/03/25 03:01:52;;;;;;;18.20;10.10;;;;;;;;;;4938380;28;20443;-49
2022/03/25 03:04:18;;;;;;;15.83;9.37;;;;;;;;;;4944503;28;20433;-50
2022/03/25 03:06:44;;;;;;;16.73;10.00;;;;;;;;;;4938723;28;20439;-52
2022/03/25 03:09:10;;;;;;;16.17;11.50;;;;;;;;;;4943667;28;20427;-50
2022/03/25 03:11:36;;;;;;;19.50;10.40;;;;;;;;;;4939444;28;20950;-49
2022/03/25 03:14:02;;;;;;;20.30;10.87;;;;;;;;;;4946051;28;20497;-50
2022/03/25 03:16:28;;;;;;;18.77;10.20;;;;;;;;;;4946367;28;20442;-50
2022/03/25 03:18:55;;;;;;;17.30;12.13;;;;;;;;;;4939599;28;20438;-51
2022/03/25 03:21:24;;;;;;;13.30;9.60;;;;;;;;;;4953973;28;20439;-50
2022/03/25 03:23:53;;;;;;;19.13;10.30;;;;;;;;;;4942381;28;20441;-50
2022/03/25 03:26:19;;;;;;;17.27;10.47;;;;;;;;;;4944865;28;20470;-50
2022/03/25 03:28:47;;;;;;;19.37;9.87;;;;;;;;;;4958001;28;20435;-50
2022/03/25 03:31:36;;;;;;;20.73;12.00;;;;;;;;;;4934320;28;20484;-52
2022/03/25 03:34:05;;;;;;;19.23;11.20;;;;;;;;;;4964520;28;20459;-50
2022/03/25 03:36:31;;;;;;;17.30;10.00;;;;;;;;;;4944525;28;20506;-49
2022/03/25 03:38:56;;;;;;;19.60;10.80;;;;;;;;;;4942777;28;20487;-49
2022/03/25 03:41:22;;;;;;;16.50;10.27;;;;;;;;;;4940781;28;20436;-49
2022/03/25 03:43:48;;;;;;;16.50;9.70;;;;;;;;;;4949397;28;20183;-48
2022/03/25 03:46:15;;;;;;;21.30;10.10;;;;;;;;;;4944494;28;20433;-48
2022/03/25 03:48:41;;;;;;;17.73;10.03;;;;;;;;;;4942515;28;20631;-48
2022/03/25 03:51:09;;;;;;;16.50;10.80;;;;;;;;;;4942920;28;20470;-51
2022/03/25 03:53:35;;;;;;;16.20;10.33;;;;;;;;;;4939347;28;20521;-48
2022/03/25 03:56:01;;;;;;;19.53;11.43;;;;;;;;;;4945474;28;20996;-48
2022/03/25 03:58:27;;;;;;;16.87;11.07;;;;;;;;;;4935309;28;20525;-50
2022/03/25 04:00:53;;;;;;;18.93;10.70;;;;;;;;;;4942718;28;20450;-51
2022/03/25 04:03:19;;;;;;;21.93;11.40;;;;;;;;;;4941808;28;20447;-51
2022/03/25 04:05:47;;;;;;;19.77;9.70;;;;;;;;;;4943247;28;20524;-52
2022/03/25 04:08:13;;;;;;;18.50;10.60;;;;;;;;;;4942768;28;20869;-51
2022/03/25 04:10:40;;;;;;;19.83;9.80;;;;;;;;;;4944854;28;20482;-50
2022/03/25 04:13:07;;;;;;;17.27;11.03;;;;;;;;;;4943321;28;20493;-51
2022/03/25 04:15:34;;;;;;;19.87;11.87;;;;;;;;;;4942520;28;20547;-50
2022/03/25 04:17:59;;;;;;;16.97;11.17;;;;;;;;;;4943730;28;20482;-50
2022/03/25 04:20:25;;;;;;;15.67;9.50;;;;;;;;;;4941735;28;22483;-49
2022/03/25 04:22:51;;;;;;;15.93;10.20;;;;;;;;;;4942640;28;20471;-50
2022/03/25 04:25:18;;;;;;;14.67;9.73;;;;;;;;;;4943850;28;20467;-51
2022/03/25 04:27:48;;;;;;;18.13;10.33;;;;;;;;;;4942118;28;20443;-50
2022/03/25 04:30:17;;;;;;;14.90;9.93;;;;;;;;;;4937959;28;20448;-50
2022/03/25 04:32:43;;;;;;;18.67;11.53;;;;;;;;;;4943116;28;20511;-52
2022/03/25 04:35:09;;;;;;;24.07;11.30;;;;;;;;;;4940077;28;20904;-51
2022/03/25 04:37:36;;;;;;;20.23;11.83;;;;;;;;;;4944297;28;20483;-51
2022/03/25 04:40:02;;;;;;;16.60;9.83;;;;;;;;;;4943084;28;20498;-51
2022/03/25 04:42:29;;;;;;;24.63;11.30;;;;;;;;;;4971229;28;20449;-49
2022/03/25 04:44:55;;;;;;;20.50;10.53;;;;;;;;;;4942677;28;20479;-47
2022/03/25 04:47:21;;;;;;;22.50;12.43;;;;;;;;;;4943172;28;20980;-49
2022/03/25 04:49:47;;;;;;;16.67;10.80;;;;;;;;;;4947371;28;20442;-50
2022/03/25 04:52:16;;;;;;;20.23;11.20;;;;;;;;;;4938238;28;20481;-56
2022/03/25 04:54:42;;;;;;;23.03;10.90;;;;;;;;;;4944503;28;20696;-51
2022/03/25 04:57:08;;;;;;;24.80;12.03;;;;;;;;;;4946809;28;20532;-50
2022/03/25 04:59:34;;;;;;;21.77;12.40;;;;;;;;;;4947763;28;20516;-53
2022/03/25 05:02:01;;;;;;;22.23;11.87;;;;;;;;;;4941209;28;20447;-51
2022/03/25 05:04:28;;;;;;;24.77;13.00;;;;;;;;;;4943115;28;20439;-50
2022/03/25 05:06:54;;;;;;;20.53;10.83;;;;;;;;;;4943287;28;20473;-48
2022/03/25 05:09:20;;;;;;;16.40;10.87;;;;;;;;;;4946791;28;20940;-49
2022/03/25 05:11:46;;;;;;;20.50;11.23;;;;;;;;;;4941163;28;20469;-50
2022/03/25 05:14:12;;;;;;;19.17;13.13;;;;;;;;;;4948010;28;20446;-49
2022/03/25 05:16:53;;;;;;;25.30;12.87;;;;;;;;;;4938769;28;20443;-50
2022/03/25 05:19:23;;;;;;;21.50;11.90;;;;;;;;;;4943306;28;20889;-50
2022/03/25 05:21:49;;;;;;;20.07;11.57;;;;;;;;;;4938544;28;20505;-53
2022/03/25 05:24:16;;;;;;;23.97;12.40;;;;;;;;;;4944681;28;20435;-49
2022/03/25 05:26:42;;;;;;;28.63;13.20;;;;;;;;;;4952969;28;20490;-50
2022/03/25 05:29:09;;;;;;;17.60;11.90;;;;;;;;;;4943153;28;21096;-51
2022/03/25 05:31:36;;;;;;;21.87;11.37;;;;;;;;;;4935629;28;20988;-51
2022/03/25 05:34:04;;;;;;;27.43;13.87;;;;;;;;;;4935717;28;21550;-51
2022/03/25 05:36:31;;;;;;;20.90;12.20;;;;;;;;;;4928178;28;20455;-51
2022/03/25 05:38:59;;;;;;;19.43;11.60;;;;;;;;;;4931185;28;20996;-49
2022/03/25 05:41:25;;;;;;;19.70;12.30;;;;;;;;;;4923714;28;20495;-50
2022/03/25 05:43:52;;;;;;;20.47;11.70;;;;;;;;;;4933567;28;20446;-51
2022/03/25 05:46:18;;;;;;;22.07;13.20;;;;;;;;;;4943048;28;20436;-51
2022/03/25 05:49:03;;;;;;;21.33;11.60;;;;;;;;;;4948290;28;20444;-51
2022/03/25 05:51:31;;;;;;;23.20;12.63;;;;;;;;;;4937615;28;20467;-50
2022/03/25 05:53:58;;;;;;;26.07;13.03;;;;;;;;;;4935916;28;20497;-50
2022/03/25 05:56:24;;;;;;;27.10;12.17;;;;;;;;;;4937354;28;20442;-51
2022/03/25 05:59:03;;;;;;;27.70;14.17;;;;;;;;;;4925128;28;20497;-51
2022/03/25 06:01:38;;;;;;;20.70;12.30;;;;;;;;;;4927986;28;20457;-51
2022/03/25 06:04:07;;;;;;;18.23;12.23;;;;;;;;;;4929313;28;20443;-51
2022/03/25 06:06:33;;;;;;;21.43;12.63;;;;;;;;;;4939256;28;20446;-51
2022/03/25 06:08:59;;;;;;;20.83;12.23;;;;;;;;;;4939457;28;20443;-51
2022/03/25 06:11:25;;;;;;;21.40;12.70;;;;;;;;;;4941895;28;20446;-51
2022/03/25 06:13:52;;;;;;;22.10;14.50;;;;;;;;;;4942853;28;20469;-49
2022/03/25 06:16:18;;;;;;;22.60;12.17;;;;;;;;;;4943452;28;20819;-49
2022/03/25 06:18:46;;;;;;;25.13;13.30;;;;;;;;;;4935607;28;20479;-51
2022/03/25 06:21:26;;;;;;;19.53;11.40;;;;;;;;;;4939295;28;20183;-51
2022/03/25 06:23:52;;;;;;;23.23;12.30;;;;;;;;;;4945214;28;20447;-50
2022/03/25 06:26:18;;;;;;;23.43;12.70;;;;;;;;;;4945640;28;20454;-50
2022/03/25 06:28:44;;;;;;;24.60;12.37;;;;;;;;;;4943955;28;20531;-50
2022/03/25 06:31:13;;;;;;;19.60;12.17;;;;;;;;;;4939550;28;20435;-50
2022/03/25 06:33:41;;;;;;;24.40;13.70;;;;;;;;;;4942015;28;20491;-49
2022/03/25 06:36:09;;;;;;;24.60;13.53;;;;;;;;;;4951531;28;21346;-50
2022/03/25 06:38:36;;;;;;;30.93;14.13;;;;;;;;;;4936033;28;20471;-52
2022/03/25 06:41:02;;;;;;;28.07;13.83;;;;;;;;;;4934699;28;20442;-48
2022/03/25 06:43:28;;;;;;;23.63;14.30;;;;;;;;;;4945514;28;20442;-49
2022/03/25 06:45:56;;;;;;;30.40;13.77;;;;;;;;;;4948468;28;20431;-49
2022/03/25 06:48:22;;;;;;;26.57;13.27;;;;;;;;;;4942280;28;20431;-50
2022/03/25 06:50:48;;;;;;;23.30;12.60;;;;;;;;;;4942438;28;21007;-50
2022/03/25 06:53:15;;;;;;;22.07;13.60;;;;;;;;;;4948434;28;20494;-49
2022/03/25 06:55:43;;;;;;;26.83;12.60;;;;;;;;;;4950591;28;20794;-50
2022/03/25 06:58:11;;;;;;;23.10;13.13;;;;;;;;;;4952567;28;20573;-48
2022/03/25 07:00:37;;;;;;;21.70;14.10;;;;;;;;;;4949524;28;20871;-50
2022/03/25 07:03:04;;;;;;;16.73;11.67;;;;;;;;;;4943289;28;20505;-50
2022/03/25 07:05:31;;;;;;;24.20;13.13;;;;;;;;;;4937017;28;20482;-50
2022/03/25 07:07:57;;;;;;;28.40;13.47;;;;;;;;;;4937636;28;20423;-49
2022/03/25 07:10:26;;;;;;;19.87;12.10;;;;;;;;;;4950302;28;20519;-51
2022/03/25 07:12:53;;;;;;;24.70;13.20;;;;;;;;;;4959953;28;20511;-50
2022/03/25 07:15:20;;;;;;;22.63;13.67;;;;;;;;;;4944305;28;20809;-50
2022/03/25 07:17:46;;;;;;;22.87;14.13;;;;;;;;;;4943565;28;20490;-50
2022/03/25 07:20:13;;;;;;;29.13;14.77;;;;;;;;;;4936747;28;20459;-50
2022/03/25 07:22:40;;;;;;;25.23;14.80;;;;;;;;;;4955654;28;20454;-50
2022/03/25 07:25:06;;;;;;;24.13;12.83;;;;;;;;;;4942271;28;20464;-50
2022/03/25 07:27:32;;;;;;;24.87;13.60;;;;;;;;;;4943343;28;20454;-49
2022/03/25 07:29:58;;;;;;;22.47;14.70;;;;;;;;;;4939060;28;20451;-48
2022/03/25 07:32:24;;;;;;;27.10;13.90;;;;;;;;;;4933012;28;21203;-48
2022/03/25 07:34:51;;;;;;;23.73;15.17;;;;;;;;;;4938265;28;20474;-50
2022/03/25 07:37:17;;;;;;;24.50;14.43;;;;;;;;;;4923014;28;20487;-50
2022/03/25 07:39:44;;;;;;;24.17;14.50;;;;;;;;;;4948989;28;20446;-51
2022/03/25 07:42:10;;;;;;;20.87;14.60;;;;;;;;;;4941119;28;20546;-51
2022/03/25 07:44:39;;;;;;;24.20;15.23;;;;;;;;;;4964029;28;20443;-51
2022/03/25 07:47:05;;;;;;;18.30;13.80;;;;;;;;;;4946325;28;20720;-50
2022/03/25 07:49:34;;;;;;;27.47;14.30;;;;;;;;;;4945491;28;20485;-51
2022/03/25 07:52:01;;;;;;;21.77;13.77;;;;;;;;;;4949088;28;20454;-50
2022/03/25 07:54:27;;;;;;;22.00;13.13;;;;;;;;;;4947939;28;20465;-56
2022/03/25 07:56:57;;;;;;;27.13;16.03;;;;;;;;;;4946973;28;21004;-50
2022/03/25 07:59:23;;;;;;;24.17;13.70;;;;;;;;;;4944533;28;20485;-50
2022/03/25 08:01:49;;;;;;;29.33;14.77;;;;;;;;;;4923906;28;20937;-48
2022/03/25 08:04:16;;;;;;;28.83;15.73;;;;;;;;;;4938710;28;20447;-51
2022/03/25 08:06:42;;;;;;;25.37;16.40;;;;;;;;;;4955141;28;20191;-51
2022/03/25 08:09:09;;;;;;;25.53;14.80;;;;;;;;;;4931172;28;20817;-51
2022/03/25 08:11:35;;;;;;;26.77;14.03;;;;;;;;;;4937169;28;20541;-51
2022/03/25 08:14:02;;;;;;;25.30;14.90;;;;;;;;;;4931439;28;20525;-50
2022/03/25 08:16:28;;;;;;;32.43;15.00;;;;;;;;;;4938033;29;20477;-49
2022/03/25 08:18:54;;;;;;;23.83;14.43;;;;;;;;;;4934983;28;20577;-50
2022/03/25 08:21:24;;;;;;;26.20;13.37;;;;;;;;;;4940866;28;20514;-51
2022/03/25 08:29:22;;;;;;;26.43;14.20;;;;;;;;;;4939757;28;20600;-51
2022/03/25 08:31:48;;;;;;;25.13;15.00;;;;;;;;;;4942964;28;20443;-51
2022/03/25 08:34:15;;;;;;;23.30;14.93;;;;;;;;;;4943145;28;20454;-50
2022/03/25 08:36:45;;;;;;;25.00;16.10;;;;;;;;;;4943399;28;20467;-51
2022/03/25 08:39:11;;;;;;;26.17;17.10;;;;;;;;;;4941891;28;20490;-51
2022/03/25 08:41:37;;;;;;;31.97;18.20;;;;;;;;;;4942689;28;20537;-51
2022/03/25 08:44:04;;;;;;;27.10;15.10;;;;;;;;;;4939158;28;20443;-51
2022/03/25 08:46:30;;;;;;;24.07;15.13;;;;;;;;;;4939006;28;20446;-51
2022/03/25 08:48:56;;;;;;;28.73;16.60;;;;;;;;;;4942754;28;20929;-51
2022/03/25 08:51:22;;;;;;;28.13;16.07;;;;;;;;;;4943776;28;20430;-50
2022/03/25 08:53:48;;;;;;;26.53;15.70;;;;;;;;;;4942194;28;20879;-50
2022/03/25 08:56:14;;;;;;;24.03;15.77;;;;;;;;;;4943197;28;20465;-50
2022/03/25 08:58:40;;;;;;;30.70;16.20;;;;;;;;;;4941965;28;20478;-51
2022/03/25 09:01:08;;;;;;;27.70;15.03;;;;;;;;;;4940321;28;20978;-51
2022/03/25 09:03:35;;;;;;;27.20;16.57;;;;;;;;;;4942118;28;20446;-54
2022/03/25 09:06:01;;;;;;;26.40;17.10;;;;;;;;;;4943421;28;20465;-51
2022/03/25 09:08:27;;;;;;;30.27;16.10;;;;;;;;;;4942187;28;20439;-51
2022/03/25 09:10:53;;;;;;;24.40;15.57;;;;;;;;;;4940727;28;20790;-51
2022/03/25 09:13:20;;;;;;;28.80;17.30;;;;;;;;;;4942227;28;20458;-51
2022/03/25 09:15:46;;;;;;;22.57;17.00;;;;;;;;;;4939919;28;20932;-51
2022/03/25 09:18:13;;;;;;;25.60;17.67;;;;;;;;;;4940712;28;20496;-57
2022/03/25 09:20:39;;;;;;;23.27;15.63;;;;;;;;;;4943091;28;20446;-52
2022/03/25 09:23:05;;;;;;;26.93;16.57;;;;;;;;;;4938972;28;20466;-56
2022/03/25 09:25:31;;;;;;;27.83;16.63;;;;;;;;;;4940778;28;20987;-51
2022/03/25 09:27:57;;;;;;;27.40;17.20;;;;;;;;;;4939967;28;20595;-50
2022/03/25 09:30:24;;;;;;;23.60;16.70;;;;;;;;;;4941064;28;20959;-51
2022/03/25 09:32:50;;;;;;;25.37;16.03;;;;;;;;;;4939364;28;20443;-50
2022/03/25 09:35:16;;;;;;;30.57;17.80;;;;;;;;;;4942039;28;20482;-51
2022/03/25 09:37:49;;;;;;;22.77;16.07;;;;;;;;;;4939798;28;20817;-51
2022/03/25 09:40:16;;;;;;;24.10;15.90;;;;;;;;;;4957507;28;20862;-51
2022/03/25 09:42:42;;;;;;;25.77;17.47;;;;;;;;;;4939831;28;20459;-51
2022/03/25 09:45:10;;;;;;;30.63;17.03;;;;;;;;;;4940392;28;20542;-51
2022/03/25 09:47:37;;;;;;;27.57;18.17;;;;;;;;;;4940092;28;20478;-51
2022/03/25 09:50:04;;;;;;;27.60;17.43;;;;;;;;;;4943287;28;20521;-51
2022/03/25 09:52:31;;;;;;;25.73;17.67;;;;;;;;;;4940899;28;20447;-51
2022/03/25 09:54:57;;;;;;;29.57;17.33;;;;;;;;;;4943621;28;21159;-51
2022/03/25 09:57:29;;;;;;;26.90;17.37;;;;;;;;;;4937561;28;20521;-53
2022/03/25 09:59:56;;;;;;;23.17;16.43;;;;;;;;;;4942244;28;20502;-51
2022/03/25 10:02:24;;;;;;;25.23;18.70;;;;;;;;;;4939182;28;21424;-51
2022/03/25 10:04:50;;;;;;;25.40;16.57;;;;;;;;;;4942428;28;20439;-51
2022/03/25 10:07:20;;;;;;;25.97;18.13;;;;;;;;;;4942188;28;20913;-51
2022/03/25 10:09:49;;;;;;;28.17;17.43;;;;;;;;;;4936396;28;20443;-52
2022/03/25 10:12:34;;;;;;;23.20;16.50;;;;;;;;;;4940039;28;20439;-51
2022/03/25 10:15:22;;;;;;;28.30;18.17;;;;;;;;;;4971272;28;20449;-51
2022/03/25 10:17:49;;;;;;;28.60;18.30;;;;;;;;;;4935597;28;20541;-51
2022/03/25 10:20:17;;;;;;;24.03;16.50;;;;;;;;;;4943250;28;20842;-51
2022/03/25 10:23:02;;;;;;;23.93;17.87;;;;;;;;;;4938194;28;20454;-51
2022/03/25 10:25:45;;;;;;;30.10;17.83;;;;;;;;;;4942928;28;20450;-51
2022/03/25 10:28:40;;;;;;;33.03;18.60;;;;;;;;;;4941488;28;20437;-51
2022/03/25 10:31:11;;;;;;;29.57;17.23;;;;;;;;;;4937221;28;20443;-52
2022/03/25 10:33:43;;;;;;;26.73;16.93;;;;;;;;;;4939337;28;21027;-49
2022/03/25 10:36:25;;;;;;;26.43;17.40;;;;;;;;;;4937478;28;20462;-51
2022/03/25 10:38:58;;;;;;;26.93;16.77;;;;;;;;;;4929504;28;20506;-51
2022/03/25 10:41:25;;;;;;;29.30;19.60;;;;;;;;;;4939702;28;20534;-51
2022/03/25 10:43:56;;;;;;;29.73;17.77;;;;;;;;;;4940693;28;20451;-51
2022/03/25 10:46:35;;;;;;;24.83;17.93;;;;;;;;;;4936953;28;20924;-51
2022/03/25 10:49:05;;;;;;;25.77;17.73;;;;;;;;;;4940258;28;20442;-51
2022/03/25 10:51:31;;;;;;;26.90;17.50;;;;;;;;;;4939656;28;20822;-51
2022/03/25 10:53:58;;;;;;;31.93;19.07;;;;;;;;;;4940250;28;20557;-52
2022/03/25 10:56:27;;;;;;;28.60;19.07;;;;;;;;;;4938783;28;20491;-52
2022/03/25 10:58:55;;;;;;;27.13;17.93;;;;;;;;;;4940054;28;20510;-51
2022/03/25 11:01:21;;;;;;;24.80;18.20;;;;;;;;;;4940866;28;20522;-50
2022/03/25 11:03:49;;;;;;;25.70;18.30;;;;;;;;;;4936935;28;20897;-52
2022/03/25 11:06:16;;;;;;;28.90;18.80;;;;;;;;;;4934571;28;20431;-52
2022/03/25 11:08:43;;;;;;;25.37;16.70;;;;;;;;;;4929896;28;20451;-51
2022/03/25 11:11:11;;;;;;;24.93;17.43;;;;;;;;;;4950851;28;20431;-51
2022/03/25 11:13:37;;;;;;;24.90;18.33;;;;;;;;;;4933062;28;20471;-51
2022/03/25 11:16:03;;;;;;;26.33;18.13;;;;;;;;;;4936215;28;20621;-51
2022/03/25 11:18:29;;;;;;;24.67;16.13;;;;;;;;;;4934730;28;20860;-51
2022/03/25 11:20:58;;;;;;;26.30;16.90;;;;;;;;;;4935978;28;20493;-51
2022/03/25 11:23:47;;;;;;;25.23;16.13;;;;;;;;;;4950170;28;20442;-49
2022/03/25 11:26:14;;;;;;;22.57;14.63;;;;;;;;;;4935905;28;20447;-50
2022/03/25 11:28:40;;;;;;;26.63;17.77;;;;;;;;;;4939818;28;20447;-52
2022/03/25 11:31:10;;;;;;;24.63;16.97;;;;;;;;;;4925896;29;20478;-52
2022/03/25 11:33:55;;;;;;;24.37;18.10;;;;;;;;;;4939745;28;21013;-52
2022/03/25 11:36:24;;;;;;;23.80;17.10;;;;;;;;;;4944106;28;20634;-52
2022/03/25 11:38:57;;;;;;;25.67;17.63;;;;;;;;;;4943266;28;20486;-52
2022/03/25 11:41:24;;;;;;;22.13;16.80;;;;;;;;;;4935538;28;20447;-52
2022/03/25 11:44:24;;;;;;;25.07;19.30;;;;;;;;;;4937087;28;20447;-51
2022/03/25 11:46:59;;;;;;;27.23;19.93;;;;;;;;;;4941553;28;20423;-52
2022/03/25 11:49:25;;;;;;;27.47;19.13;;;;;;;;;;4944105;28;20789;-51
2022/03/25 11:51:51;;;;;;;25.53;19.30;;;;;;;;;;4924434;29;20463;-52
2022/03/25 11:54:37;;;;;;;25.83;18.60;;;;;;;;;;4929725;29;20573;-51
2022/03/25 11:57:04;;;;;;;23.30;18.07;;;;;;;;;;4944437;28;21208;-51
2022/03/25 11:59:49;;;;;;;29.50;19.87;;;;;;;;;;4943734;28;20991;-51
2022/03/25 12:02:42;;;;;;;23.10;17.90;;;;;;;;;;4947627;28;20898;-52
2022/03/25 12:05:33;;;;;;;28.70;20.13;;;;;;;;;;4946695;28;20471;-52
2022/03/25 12:08:18;;;;;;;27.07;19.63;;;;;;;;;;4925160;28;20450;-52
2022/03/25 12:10:45;;;;;;;28.03;18.70;;;;;;;;;;4937435;28;20439;-51
2022/03/25 12:13:11;;;;;;;26.60;19.80;;;;;;;;;;4946976;28;20454;-52
2022/03/25 12:15:41;;;;;;;27.30;18.50;;;;;;;;;;4944036;28;21387;-52
2022/03/25 12:18:40;;;;;;;24.57;17.70;;;;;;;;;;4945760;28;20487;-53
2022/03/25 12:21:28;;;;;;;25.73;19.77;;;;;;;;;;4915088;28;20434;-52
2022/03/25 12:23:56;;;;;;;22.97;17.07;;;;;;;;;;4940770;28;20442;-51
2022/03/25 12:26:36;;;;;;;28.17;20.67;;;;;;;;;;4939730;28;20431;-51
2022/03/25 12:29:02;;;;;;;27.83;19.23;;;;;;;;;;4936561;28;20443;-51
2022/03/25 12:31:29;;;;;;;23.97;18.80;;;;;;;;;;4940201;28;20435;-51
2022/03/25 12:33:57;;;;;;;23.27;18.50;;;;;;;;;;4941415;28;21322;-51
2022/03/25 12:36:26;;;;;;;23.93;19.53;;;;;;;;;;4887957;28;1596106;-52
2022/03/25 12:38:55;;;;;;;24.87;19.17;;;;;;;;;;4938903;28;20454;-51
2022/03/25 12:41:27;;;;;;;25.17;19.30;;;;;;;;;;4938949;28;20499;-52
2022/03/25 12:43:57;;;;;;;26.10;20.30;;;;;;;;;;4942503;28;20458;-52
2022/03/25 12:46:32;;;;;;;24.53;19.80;;;;;;;;;;4945053;28;20533;-52
2022/03/25 12:49:07;;;;;;;26.97;20.03;;;;;;;;;;4948455;28;20450;-52
2022/03/25 12:51:45;;;;;;;24.93;17.93;;;;;;;;;;4942884;28;20445;-51
2022/03/25 12:54:25;;;;;;;23.23;17.77;;;;;;;;;;4944441;28;20427;-52
2022/03/25 12:56:56;;;;;;;23.70;17.27;;;;;;;;;;4957360;28;20535;-52
2022/03/25 12:59:28;;;;;;;24.50;21.10;;;;;;;;;;4946754;28;20478;-52
2022/03/25 13:01:55;;;;;;;22.03;18.87;;;;;;;;;;4936389;28;20439;-50
2022/03/25 13:04:28;;;;;;;27.00;19.67;;;;;;;;;;4945414;28;20469;-51
2022/03/25 13:06:58;;;;;;;24.13;18.67;;;;;;;;;;4944660;28;20458;-51
2022/03/25 13:09:24;;;;;;;23.00;18.60;;;;;;;;;;4933839;28;20438;-50
2022/03/25 13:11:54;;;;;;;23.60;18.60;;;;;;;;;;4948135;28;20461;-52
2022/03/25 13:14:23;;;;;;;24.50;18.73;;;;;;;;;;4946496;28;20439;-52
2022/03/25 13:16:49;;;;;;;21.40;17.83;;;;;;;;;;4945370;28;20463;-52
2022/03/25 13:19:16;;;;;;;24.07;18.20;;;;;;;;;;4974467;28;20549;-52
2022/03/25 13:21:43;;;;;;;20.37;16.10;;;;;;;;;;4945439;28;20459;-51
2022/03/25 13:24:10;;;;;;;26.77;18.90;;;;;;;;;;4945704;28;20447;-53
2022/03/25 13:26:39;;;;;;;28.00;19.77;;;;;;;;;;4946806;28;20427;-52
2022/03/25 13:29:07;;;;;;;24.20;20.33;;;;;;;;;;4934574;28;20451;-51
2022/03/25 13:31:33;;;;;;;26.60;21.00;;;;;;;;;;4935105;28;20435;-49
2022/03/25 13:33:59;;;;;;;26.50;21.63;;;;;;;;;;4944237;28;20485;-50
2022/03/25 13:36:30;;;;;;;25.40;19.30;;;;;;;;;;4940341;28;20206;-52
2022/03/25 13:38:56;;;;;;;27.50;20.80;;;;;;;;;;4938006;28;21930;-52
2022/03/25 13:41:23;;;;;;;28.10;21.20;;;;;;;;;;4936396;28;20440;-52
2022/03/25 13:43:49;;;;;;;27.53;21.30;;;;;;;;;;4945261;28;20435;-50
2022/03/25 13:46:27;;;;;;;27.57;20.17;;;;;;;;;;4941370;28;20455;-51
2022/03/25 13:48:58;;;;;;;25.20;18.60;;;;;;;;;;4941607;28;20450;-52
2022/03/25 13:51:24;;;;;;;26.17;18.80;;;;;;;;;;4941395;28;22482;-51
2022/03/25 13:53:58;;;;;;;29.57;18.33;;;;;;;;;;4939504;28;20443;-51
2022/03/25 13:56:24;;;;;;;25.80;17.07;;;;;;;;;;4943079;28;20439;-51
2022/03/25 13:58:54;;;;;;;22.80;16.33;;;;;;;;;;4940231;28;20473;-52
2022/03/25 14:01:40;;;;;;;30.03;18.20;;;;;;;;;;4942345;28;20450;-53
2022/03/25 14:04:10;;;;;;;29.10;17.03;;;;;;;;;;4937434;28;20497;-51
2022/03/25 14:06:39;;;;;;;23.93;15.83;;;;;;;;;;4935601;28;20984;-52
2022/03/25 14:09:05;;;;;;;21.73;16.57;;;;;;;;;;4950138;28;20722;-51
2022/03/25 14:11:41;;;;;;;24.90;17.67;;;;;;;;;;4933216;28;20466;-51
2022/03/25 14:14:07;;;;;;;22.90;16.93;;;;;;;;;;4931897;28;20451;-51
2022/03/25 14:16:33;;;;;;;28.63;16.27;;;;;;;;;;4939684;28;20810;-51
2022/03/25 14:18:59;;;;;;;31.83;18.73;;;;;;;;;;4938785;28;20537;-51
2022/03/25 14:21:33;;;;;;;26.90;18.00;;;;;;;;;;4938423;28;20817;-51
2022/03/25 14:26:47;;;;;;;24.33;17.80;;;;;;;;;;4935169;28;20454;-53
2022/03/25 14:29:14;;;;;;;31.87;20.30;;;;;;;;;;4934866;28;20457;-52
2022/03/25 14:31:43;;;;;;;31.20;20.70;;;;;;;;;;4929617;28;20454;-51
2022/03/25 14:34:09;;;;;;;30.47;21.40;;;;;;;;;;4935787;28;20761;-51
2022/03/25 14:36:36;;;;;;;27.33;19.43;;;;;;;;;;4938048;28;20455;-51